Time;durP1;ratioP1;P1;durP2;ratioP2;P2;SDS_P1;SDS_P2;PMS_P1;PMS_P2;Temp;Humidity;BMP_temperature;BMP_pressure;BME280_temperature;BME280_humidity;BME280_pressure;Samples;Min_cycle;Max_cycle;Signal;HPM_P1;HPM_P2
2022/09/14 00:00:16;;;;;;;0.82;0.80;;;24.10;55.50;;;;;;5033262;28;20040;-68
2022/09/14 00:02:41;;;;;;;1.10;0.80;;;24.10;55.50;;;;;;5033585;28;20107;-69
2022/09/14 00:05:07;;;;;;;0.95;0.82;;;24.00;55.50;;;;;;5032896;28;20697;-68
2022/09/14 00:07:33;;;;;;;1.13;0.80;;;24.00;55.40;;;;;;5033580;28;20030;-69
2022/09/14 00:09:58;;;;;;;1.00;0.82;;;24.00;55.40;;;;;;5032289;28;20489;-69
2022/09/14 00:12:24;;;;;;;0.85;0.80;;;24.10;55.50;;;;;;5032639;28;20123;-69
2022/09/14 00:14:49;;;;;;;0.82;0.70;;;24.00;55.40;;;;;;5033335;28;20516;-68
2022/09/14 00:17:15;;;;;;;1.23;0.80;;;24.00;55.40;;;;;;5033390;28;20026;-69
2022/09/14 00:19:41;;;;;;;0.70;0.70;;;24.10;55.50;;;;;;5033404;28;20540;-69
2022/09/14 00:22:06;;;;;;;1.10;0.80;;;24.10;55.50;;;;;;5033230;28;20101;-69
2022/09/14 00:24:33;;;;;;;0.93;0.70;;;24.00;56.00;;;;;;5033268;28;20026;-70
2022/09/14 00:27:01;;;;;;;1.00;0.90;;;24.00;55.40;;;;;;5032983;28;20092;-69
2022/09/14 00:29:27;;;;;;;1.58;0.80;;;24.00;55.40;;;;;;5033106;28;20045;-70
2022/09/14 00:31:53;;;;;;;1.05;0.70;;;24.00;55.30;;;;;;5032600;28;20443;-68
2022/09/14 00:34:18;;;;;;;1.65;0.77;;;24.00;55.40;;;;;;5033103;28;20022;-68
2022/09/14 00:36:47;;;;;;;0.82;0.63;;;24.00;55.40;;;;;;5033052;28;20374;-70
2022/09/14 00:39:14;;;;;;;0.90;0.80;;;24.00;55.40;;;;;;5032909;28;20029;-69
2022/09/14 00:41:42;;;;;;;0.90;0.70;;;24.00;55.40;;;;;;5032719;28;20029;-68
2022/09/14 00:44:14;;;;;;;1.00;0.60;;;24.00;55.40;;;;;;5030711;28;20116;-70
2022/09/14 00:46:47;;;;;;;0.90;0.70;;;24.00;55.30;;;;;;5032589;28;20026;-69
2022/09/14 00:49:33;;;;;;;1.20;0.80;;;24.00;55.90;;;;;;5032753;28;20477;-70
2022/09/14 00:52:08;;;;;;;0.80;0.70;;;24.00;55.40;;;;;;5030914;28;20508;-69
2022/09/14 00:54:39;;;;;;;1.10;0.80;;;24.00;55.30;;;;;;5032593;28;20032;-69
2022/09/14 00:57:06;;;;;;;0.95;0.80;;;24.00;55.30;;;;;;5014813;28;20469;-69
2022/09/14 00:59:36;;;;;;;1.17;0.80;;;24.00;55.30;;;;;;5032619;28;20029;-69
2022/09/14 01:02:02;;;;;;;0.88;0.68;;;24.00;55.40;;;;;;5032001;28;20444;-70
2022/09/14 01:04:27;;;;;;;1.05;0.80;;;24.00;55.30;;;;;;5032334;28;20029;-69
2022/09/14 01:07:06;;;;;;;0.70;0.70;;;24.00;55.30;;;;;;5032404;28;20111;-68
2022/09/14 01:09:40;;;;;;;0.60;0.60;;;24.00;55.30;;;;;;5031415;28;20084;-70
2022/09/14 01:12:19;;;;;;;1.08;0.80;;;24.00;55.30;;;;;;5032346;28;20037;-69
2022/09/14 01:15:09;;;;;;;0.88;0.70;;;24.00;55.40;;;;;;5031838;28;20402;-70
2022/09/14 01:17:45;;;;;;;1.33;0.80;;;24.00;55.40;;;;;;5032275;28;20022;-69
2022/09/14 01:20:29;;;;;;;0.80;0.77;;;24.00;55.30;;;;;;5031814;28;20064;-69
2022/09/14 01:23:21;;;;;;;0.93;0.80;;;24.00;55.30;;;;;;5031711;28;20029;-69
2022/09/14 01:25:55;;;;;;;0.80;0.70;;;23.90;55.20;;;;;;5031299;28;20041;-69
2022/09/14 01:28:42;;;;;;;1.13;0.88;;;24.00;55.30;;;;;;5031934;28;20040;-67
2022/09/14 01:31:17;;;;;;;1.13;0.73;;;24.00;55.30;;;;;;5031535;28;20025;-69
2022/09/14 01:33:55;;;;;;;0.52;0.52;;;24.00;55.30;;;;;;5031402;28;20022;-69
2022/09/14 01:36:23;;;;;;;0.70;0.70;;;23.90;55.30;;;;;;5030131;28;20029;-69
2022/09/14 01:38:52;;;;;;;0.70;0.70;;;23.90;55.20;;;;;;5031876;28;20115;-70
2022/09/14 01:41:23;;;;;;;0.80;0.75;;;23.90;55.30;;;;;;5031755;28;20537;-70
2022/09/14 01:43:53;;;;;;;0.82;0.70;;;23.90;55.20;;;;;;5031736;28;20112;-69
2022/09/14 01:46:25;;;;;;;0.88;0.70;;;23.90;55.20;;;;;;5030803;28;20431;-70
2022/09/14 01:49:01;;;;;;;0.93;0.70;;;23.90;55.20;;;;;;5031736;28;20018;-68
2022/09/14 01:51:40;;;;;;;0.90;0.80;;;23.90;55.20;;;;;;5031452;28;20487;-69
2022/09/14 01:54:27;;;;;;;0.90;0.80;;;23.90;55.30;;;;;;5031658;28;20513;-69
2022/09/14 01:56:59;;;;;;;0.68;0.63;;;23.90;55.20;;;;;;5030555;28;20044;-69
2022/09/14 01:59:46;;;;;;;0.77;0.65;;;23.90;55.30;;;;;;5031151;28;20029;-69
2022/09/14 02:02:31;;;;;;;1.00;0.75;;;23.90;55.20;;;;;;5030336;28;20044;-69
2022/09/14 02:05:05;;;;;;;1.10;0.70;;;23.90;55.20;;;;;;5031370;28;20036;-70
2022/09/14 02:07:31;;;;;;;1.40;0.60;;;23.90;55.20;;;;;;5029925;28;20132;-70
2022/09/14 02:09:56;;;;;;;0.93;0.70;;;23.90;55.20;;;;;;5031180;28;20029;-69
2022/09/14 02:12:22;;;;;;;1.10;0.80;;;23.90;55.30;;;;;;5013520;28;20029;-68
2022/09/14 02:14:50;;;;;;;0.60;0.60;;;23.90;55.20;;;;;;5030968;28;20052;-69
2022/09/14 02:17:16;;;;;;;0.80;0.70;;;23.90;55.30;;;;;;5031046;28;20033;-69
2022/09/14 02:19:55;;;;;;;1.08;0.73;;;23.90;55.20;;;;;;5031162;28;20029;-69
2022/09/14 02:22:21;;;;;;;1.00;0.80;;;23.90;55.20;;;;;;5030838;28;20033;-69
2022/09/14 02:24:48;;;;;;;1.38;0.80;;;23.90;55.20;;;;;;5031079;28;20366;-69
2022/09/14 02:27:13;;;;;;;1.17;0.80;;;23.90;55.20;;;;;;5030924;28;20030;-69
2022/09/14 02:29:39;;;;;;;1.00;0.70;;;23.90;55.20;;;;;;5030885;28;20099;-69
2022/09/14 02:32:14;;;;;;;0.70;0.70;;;23.90;55.20;;;;;;5030485;28;20103;-69
2022/09/14 02:34:45;;;;;;;0.90;0.60;;;23.90;55.20;;;;;;5029512;28;20083;-68
2022/09/14 02:38:02;;;;;;;0.85;0.70;;;23.90;55.20;;;;;;5030419;28;20145;-68
2022/09/14 02:40:37;;;;;;;0.82;0.70;;;23.90;55.20;;;;;;4992669;28;20041;-68
2022/09/14 02:43:29;;;;;;;0.70;0.70;;;23.90;55.20;;;;;;5031078;28;20048;-67
2022/09/14 02:46:16;;;;;;;0.73;0.70;;;23.90;55.20;;;;;;5030373;28;20037;-68
2022/09/14 02:49:05;;;;;;;0.80;0.80;;;23.90;55.20;;;;;;5029968;28;20393;-67
2022/09/14 02:51:44;;;;;;;0.73;0.70;;;23.90;55.20;;;;;;5030055;28;20061;-69
2022/09/14 02:54:15;;;;;;;0.60;0.57;;;23.90;55.20;;;;;;5030837;28;20560;-68
2022/09/14 02:56:40;;;;;;;0.80;0.70;;;23.90;55.20;;;;;;5030371;28;20366;-69
2022/09/14 02:59:06;;;;;;;0.95;0.80;;;23.90;55.20;;;;;;5004027;28;20037;-69
2022/09/14 03:01:32;;;;;;;0.75;0.70;;;23.90;55.20;;;;;;5030299;28;20068;-69
2022/09/14 03:03:57;;;;;;;1.10;0.93;;;23.90;55.20;;;;;;5005247;28;20037;-68
2022/09/14 03:06:23;;;;;;;0.65;0.65;;;23.90;55.20;;;;;;5030598;28;20083;-69
2022/09/14 03:08:49;;;;;;;0.70;0.70;;;23.90;55.20;;;;;;5033490;28;20064;-68
2022/09/14 03:11:15;;;;;;;0.70;0.70;;;23.90;55.20;;;;;;5034714;28;20457;-69
2022/09/14 03:13:40;;;;;;;0.70;0.70;;;23.90;55.20;;;;;;5034136;28;20029;-68
2022/09/14 03:16:09;;;;;;;0.70;0.70;;;23.90;55.20;;;;;;5016682;28;20032;-69
2022/09/14 03:18:35;;;;;;;1.10;0.80;;;23.90;55.20;;;;;;5034416;28;20025;-68
2022/09/14 03:21:03;;;;;;;0.88;0.70;;;23.90;55.10;;;;;;5016606;28;20505;-68
2022/09/14 03:23:29;;;;;;;0.57;0.57;;;23.90;55.10;;;;;;5034283;28;20120;-68
2022/09/14 03:25:54;;;;;;;0.90;0.70;;;23.90;55.10;;;;;;5033288;28;20108;-68
2022/09/14 03:28:20;;;;;;;0.88;0.70;;;23.90;55.10;;;;;;5034226;28;20026;-69
2022/09/14 03:30:46;;;;;;;0.82;0.68;;;23.90;55.10;;;;;;5032724;28;20501;-68
2022/09/14 03:33:14;;;;;;;0.85;0.68;;;23.90;55.20;;;;;;5006508;28;20037;-68
2022/09/14 03:35:39;;;;;;;0.68;0.60;;;23.90;55.10;;;;;;5034217;28;20024;-68
2022/09/14 03:38:05;;;;;;;0.88;0.77;;;23.80;55.10;;;;;;5033676;28;20026;-68
2022/09/14 03:40:31;;;;;;;1.10;0.88;;;23.90;55.10;;;;;;5033966;28;20021;-68
2022/09/14 03:42:57;;;;;;;0.63;0.63;;;23.90;55.10;;;;;;5033977;28;20026;-68
2022/09/14 03:45:22;;;;;;;0.75;0.70;;;23.80;55.10;;;;;;5032230;28;20396;-68
2022/09/14 03:47:49;;;;;;;0.60;0.60;;;23.80;55.10;;;;;;5033931;28;20441;-68
2022/09/14 03:50:15;;;;;;;0.88;0.70;;;23.80;55.10;;;;;;5033831;28;20156;-69
2022/09/14 03:52:41;;;;;;;0.98;0.80;;;23.80;55.10;;;;;;5033827;28;20496;-69
2022/09/14 03:55:08;;;;;;;1.00;0.70;;;23.80;55.00;;;;;;5033786;28;20030;-68
2022/09/14 03:57:33;;;;;;;0.70;0.70;;;23.80;55.10;;;;;;5016009;28;20500;-69
2022/09/14 03:59:59;;;;;;;0.70;0.70;;;23.90;55.10;;;;;;5033704;28;20136;-69
2022/09/14 04:02:26;;;;;;;0.85;0.70;;;23.80;55.10;;;;;;5033160;28;20536;-69
2022/09/14 04:04:52;;;;;;;1.00;0.68;;;23.80;55.00;;;;;;5033007;28;20022;-69
2022/09/14 04:07:18;;;;;;;0.63;0.60;;;23.80;55.00;;;;;;5032075;28;20025;-68
2022/09/14 04:09:44;;;;;;;0.75;0.70;;;23.80;55.00;;;;;;5015662;28;20022;-68
2022/09/14 04:12:09;;;;;;;0.73;0.73;;;23.80;55.10;;;;;;5033391;28;20037;-68
2022/09/14 04:14:35;;;;;;;1.08;0.80;;;23.80;55.10;;;;;;5033249;28;20038;-68
2022/09/14 04:17:01;;;;;;;0.80;0.70;;;23.80;55.00;;;;;;5033325;28;20037;-68
2022/09/14 04:19:28;;;;;;;1.00;0.73;;;23.80;55.00;;;;;;5032552;28;20053;-68
2022/09/14 04:21:53;;;;;;;0.60;0.60;;;23.80;55.00;;;;;;5006445;28;20056;-68
2022/09/14 04:24:19;;;;;;;0.75;0.65;;;23.80;55.00;;;;;;5033256;28;20040;-68
2022/09/14 04:26:45;;;;;;;0.95;0.75;;;23.80;55.00;;;;;;5033082;28;20083;-68
2022/09/14 04:29:11;;;;;;;1.00;0.63;;;23.80;55.00;;;;;;5032955;28;20029;-68
2022/09/14 04:31:38;;;;;;;1.00;0.80;;;23.80;55.00;;;;;;5032554;28;20022;-68
2022/09/14 04:34:04;;;;;;;0.88;0.80;;;23.80;55.00;;;;;;5033109;28;20022;-68
2022/09/14 04:36:29;;;;;;;0.60;0.60;;;23.80;55.00;;;;;;5032893;28;20075;-68
2022/09/14 04:39:00;;;;;;;0.70;0.60;;;23.80;55.00;;;;;;5032916;28;20034;-68
2022/09/14 04:41:27;;;;;;;0.70;0.63;;;23.80;55.40;;;;;;5032685;28;20116;-68
2022/09/14 04:43:54;;;;;;;0.70;0.60;;;23.80;55.00;;;;;;5031458;28;20104;-68
2022/09/14 04:46:28;;;;;;;0.65;0.63;;;23.80;54.90;;;;;;5032696;28;20017;-68
2022/09/14 04:48:54;;;;;;;0.85;0.50;;;23.80;54.90;;;;;;5031876;28;20032;-68
2022/09/14 04:51:22;;;;;;;0.60;0.60;;;23.80;55.00;;;;;;5032719;28;20101;-68
2022/09/14 04:53:50;;;;;;;1.00;0.60;;;23.80;54.90;;;;;;5032848;28;20458;-68
2022/09/14 04:56:16;;;;;;;1.00;0.70;;;23.80;55.00;;;;;;5032379;28;20066;-68
2022/09/14 04:58:46;;;;;;;0.65;0.60;;;23.70;54.90;;;;;;5032371;28;20029;-68
2022/09/14 05:01:15;;;;;;;1.30;0.80;;;23.80;55.00;;;;;;5031578;28;20441;-67
2022/09/14 05:03:41;;;;;;;0.95;0.70;;;23.80;55.00;;;;;;5032111;28;20025;-68
2022/09/14 05:06:10;;;;;;;1.05;0.80;;;23.80;55.00;;;;;;5032393;28;20041;-68
2022/09/14 05:08:37;;;;;;;1.20;0.82;;;23.80;55.00;;;;;;5032496;28;20469;-68
2022/09/14 05:11:07;;;;;;;1.23;0.80;;;23.80;55.10;;;;;;5031927;28;20045;-68
2022/09/14 05:13:33;;;;;;;1.13;0.80;;;23.80;55.10;;;;;;5031922;28;20099;-69
2022/09/14 05:16:08;;;;;;;0.93;0.82;;;23.80;55.10;;;;;;5033366;28;20037;-68
2022/09/14 05:18:34;;;;;;;0.80;0.80;;;23.80;55.10;;;;;;5031911;28;20152;-68
2022/09/14 05:21:01;;;;;;;1.25;0.80;;;23.80;55.00;;;;;;5032203;28;20112;-68
2022/09/14 05:23:27;;;;;;;0.88;0.75;;;23.90;55.00;;;;;;5032179;28;20034;-68
2022/09/14 05:25:53;;;;;;;1.20;0.80;;;23.90;55.00;;;;;;5032273;28;20029;-68
2022/09/14 05:28:18;;;;;;;1.17;0.90;;;23.90;55.00;;;;;;5032054;28;20093;-68
2022/09/14 05:30:44;;;;;;;1.08;0.77;;;23.90;54.90;;;;;;5031396;28;20043;-68
2022/09/14 05:33:09;;;;;;;1.23;0.93;;;23.90;54.90;;;;;;5032067;28;20361;-68
2022/09/14 05:35:35;;;;;;;1.10;0.85;;;24.00;54.80;;;;;;5032060;28;20025;-68
2022/09/14 05:38:01;;;;;;;0.98;0.80;;;24.00;54.80;;;;;;5031918;28;20459;-68
2022/09/14 05:40:26;;;;;;;0.90;0.70;;;24.00;54.70;;;;;;5031953;28;20037;-68
2022/09/14 05:42:52;;;;;;;1.15;0.80;;;24.10;54.70;;;;;;5031823;28;20034;-68
2022/09/14 05:45:17;;;;;;;1.63;1.00;;;24.10;54.60;;;;;;5031268;28;20025;-68
2022/09/14 05:47:43;;;;;;;1.20;0.80;;;24.10;54.50;;;;;;5031337;28;20022;-68
2022/09/14 05:50:09;;;;;;;1.02;0.90;;;24.10;54.40;;;;;;5031661;28;20026;-68
2022/09/14 05:52:34;;;;;;;1.25;1.00;;;24.20;54.30;;;;;;5031717;28;20018;-67
2022/09/14 05:55:00;;;;;;;1.35;1.00;;;24.30;54.40;;;;;;5031325;28;20025;-68
2022/09/14 05:57:26;;;;;;;1.42;0.88;;;24.30;54.20;;;;;;5031630;28;20033;-68
2022/09/14 05:59:51;;;;;;;1.50;0.90;;;24.30;54.20;;;;;;5031794;28;20064;-68
2022/09/14 06:02:17;;;;;;;1.20;0.90;;;24.30;54.10;;;;;;5031070;28;20400;-68
2022/09/14 06:04:43;;;;;;;1.38;0.90;;;24.30;54.00;;;;;;5031415;28;20034;-68
2022/09/14 06:07:08;;;;;;;1.10;0.90;;;24.40;54.00;;;;;;5031436;28;20029;-68
2022/09/14 06:09:34;;;;;;;1.55;0.90;;;24.40;53.90;;;;;;5031486;28;20022;-67
2022/09/14 06:11:59;;;;;;;1.10;0.90;;;24.40;53.80;;;;;;5013670;28;20021;-67
2022/09/14 06:14:25;;;;;;;1.20;0.90;;;24.50;53.80;;;;;;5031289;28;20180;-67
2022/09/14 06:16:50;;;;;;;1.58;0.90;;;24.50;53.90;;;;;;5013507;28;20183;-67
2022/09/14 06:19:16;;;;;;;1.42;0.90;;;24.50;53.90;;;;;;5031143;28;20037;-67
2022/09/14 06:21:42;;;;;;;1.45;1.00;;;24.50;53.90;;;;;;5005711;28;20539;-68
2022/09/14 06:24:11;;;;;;;1.30;0.90;;;24.50;53.90;;;;;;5031333;28;20133;-68
2022/09/14 06:26:37;;;;;;;2.03;1.05;;;24.50;53.80;;;;;;5031196;28;20075;-67
2022/09/14 06:29:03;;;;;;;1.30;0.95;;;24.60;53.70;;;;;;5031223;28;20951;-68
2022/09/14 06:31:29;;;;;;;1.10;0.90;;;24.60;53.60;;;;;;5030602;28;20035;-68
2022/09/14 06:33:54;;;;;;;1.35;1.00;;;24.60;53.60;;;;;;5031124;28;20436;-68
2022/09/14 06:36:23;;;;;;;1.35;0.95;;;24.70;53.50;;;;;;5031206;28;20033;-68
2022/09/14 06:38:48;;;;;;;1.55;1.00;;;24.70;53.40;;;;;;5013453;28;20034;-68
2022/09/14 06:41:16;;;;;;;2.28;1.23;;;24.70;53.40;;;;;;5028867;28;20068;-68
2022/09/14 06:43:43;;;;;;;1.90;0.95;;;24.70;53.40;;;;;;5030504;28;20060;-68
2022/09/14 06:46:18;;;;;;;1.17;0.82;;;24.80;53.40;;;;;;5030926;28;20026;-68
2022/09/14 06:48:49;;;;;;;1.20;0.90;;;24.80;53.40;;;;;;5030925;28;20029;-68
2022/09/14 06:51:19;;;;;;;1.48;0.90;;;24.80;53.40;;;;;;5030356;28;20285;-68
2022/09/14 06:53:46;;;;;;;0.98;0.90;;;24.80;53.30;;;;;;5030472;28;20116;-68
2022/09/14 06:56:12;;;;;;;1.90;0.90;;;24.80;53.20;;;;;;5013092;28;20096;-68
2022/09/14 06:58:38;;;;;;;1.40;1.00;;;24.90;53.30;;;;;;5030851;28;20362;-68
2022/09/14 07:01:06;;;;;;;1.40;1.00;;;24.90;53.20;;;;;;5030395;28;20040;-68
2022/09/14 07:03:35;;;;;;;2.33;1.02;;;24.90;53.20;;;;;;5012698;28;20036;-68
2022/09/14 07:06:09;;;;;;;1.42;0.98;;;24.90;53.20;;;;;;5013166;28;20477;-67
2022/09/14 07:08:36;;;;;;;1.90;1.08;;;24.90;53.10;;;;;;5027104;28;20435;-68
2022/09/14 07:11:03;;;;;;;1.50;1.00;;;25.00;53.10;;;;;;5030750;28;20018;-68
2022/09/14 07:13:30;;;;;;;1.67;1.00;;;25.00;53.10;;;;;;5030591;28;20037;-67
2022/09/14 07:15:56;;;;;;;1.65;1.17;;;25.00;53.10;;;;;;5030403;28;20451;-67
2022/09/14 07:18:28;;;;;;;1.13;1.00;;;25.00;53.00;;;;;;5012971;28;20029;-66
2022/09/14 07:20:54;;;;;;;1.35;1.00;;;25.00;53.00;;;;;;5030838;28;20022;-67
2022/09/14 07:23:20;;;;;;;3.20;1.10;;;25.00;53.00;;;;;;5030363;28;20036;-68
2022/09/14 07:25:46;;;;;;;1.35;0.90;;;25.10;53.00;;;;;;5029536;28;20083;-68
2022/09/14 07:28:12;;;;;;;1.90;1.00;;;25.10;53.00;;;;;;5030402;28;20030;-67
2022/09/14 07:30:37;;;;;;;1.48;1.05;;;25.10;52.90;;;;;;5030051;28;20615;-67
2022/09/14 07:33:04;;;;;;;1.55;1.10;;;25.10;52.90;;;;;;5030355;28;20030;-67
2022/09/14 07:35:31;;;;;;;2.00;1.10;;;25.10;52.90;;;;;;5030458;28;20111;-67
2022/09/14 07:37:56;;;;;;;1.58;1.10;;;25.20;52.90;;;;;;5030408;28;20060;-67
2022/09/14 07:40:22;;;;;;;1.90;1.10;;;25.20;52.80;;;;;;5004298;28;20037;-67
2022/09/14 07:42:52;;;;;;;2.38;1.27;;;25.20;52.80;;;;;;5030402;28;20397;-67
2022/09/14 07:45:18;;;;;;;2.67;1.20;;;25.20;52.80;;;;;;5029749;28;20026;-67
2022/09/14 07:47:44;;;;;;;1.85;1.00;;;25.20;52.80;;;;;;5030101;28;20041;-67
2022/09/14 07:50:09;;;;;;;2.10;1.10;;;25.30;52.80;;;;;;5028074;28;20115;-67
2022/09/14 07:52:35;;;;;;;1.88;1.17;;;25.30;52.80;;;;;;5030302;28;20129;-65
2022/09/14 07:55:01;;;;;;;2.00;1.27;;;25.30;52.80;;;;;;5031370;28;20029;-66
2022/09/14 07:57:27;;;;;;;2.17;1.27;;;25.30;52.70;;;;;;5033689;28;20041;-66
2022/09/14 07:59:52;;;;;;;1.90;1.10;;;25.30;52.70;;;;;;5033681;28;20105;-67
2022/09/14 08:02:18;;;;;;;1.30;1.00;;;25.30;52.60;;;;;;5032462;28;20083;-66
2022/09/14 08:04:43;;;;;;;2.38;1.25;;;25.40;52.70;;;;;;5005879;28;20548;-66
2022/09/14 08:07:09;;;;;;;2.42;1.40;;;25.40;52.70;;;;;;5033181;28;20068;-67
2022/09/14 08:09:37;;;;;;;2.05;1.15;;;25.40;52.60;;;;;;5033628;28;20034;-67
2022/09/14 08:12:04;;;;;;;1.88;1.20;;;25.40;52.60;;;;;;5015520;28;20029;-66
2022/09/14 08:14:30;;;;;;;1.70;1.00;;;25.40;52.60;;;;;;5033276;28;20128;-67
2022/09/14 08:16:56;;;;;;;1.70;1.15;;;25.40;53.10;;;;;;5033500;28;20501;-66
2022/09/14 08:19:21;;;;;;;2.40;1.30;;;25.40;52.60;;;;;;5033512;28;20492;-67
2022/09/14 08:21:47;;;;;;;1.65;1.20;;;25.40;52.50;;;;;;5033238;28;20018;-67
2022/09/14 08:24:16;;;;;;;3.88;1.23;;;25.40;52.50;;;;;;5033279;28;20062;-69
2022/09/14 08:26:42;;;;;;;2.25;1.30;;;25.40;52.60;;;;;;5032828;28;20447;-67
2022/09/14 08:29:08;;;;;;;2.35;1.10;;;25.50;52.60;;;;;;5033298;28;20101;-69
2022/09/14 08:31:41;;;;;;;3.65;1.20;;;25.50;52.50;;;;;;5032704;28;20029;-69
2022/09/14 08:34:07;;;;;;;1.90;1.10;;;25.50;52.60;;;;;;5033193;28;20338;-69
2022/09/14 08:36:36;;;;;;;1.65;1.13;;;25.50;52.50;;;;;;5015257;28;20021;-69
2022/09/14 08:39:03;;;;;;;2.28;1.50;;;25.50;52.40;;;;;;5033204;28;20473;-68
2022/09/14 08:41:43;;;;;;;1.83;1.08;;;25.60;52.40;;;;;;5015101;28;20062;-68
2022/09/14 08:44:29;;;;;;;1.58;1.23;;;25.60;52.40;;;;;;5032764;28;20361;-68
2022/09/14 08:47:02;;;;;;;1.95;1.23;;;25.60;52.30;;;;;;5032841;28;20034;-68
2022/09/14 08:49:52;;;;;;;2.35;1.10;;;25.60;52.30;;;;;;5032444;28;20056;-68
2022/09/14 08:52:21;;;;;;;2.53;1.30;;;25.60;52.20;;;;;;5032728;28;20043;-69
2022/09/14 08:54:51;;;;;;;2.08;1.05;;;25.70;52.30;;;;;;5032025;28;20021;-68
2022/09/14 08:57:26;;;;;;;1.35;1.00;;;25.70;52.30;;;;;;5032584;28;20570;-68
2022/09/14 09:00:10;;;;;;;1.70;1.10;;;25.70;52.20;;;;;;5007000;28;20489;-68
2022/09/14 09:02:47;;;;;;;2.17;1.20;;;25.70;52.20;;;;;;5051787;28;20127;-67
2022/09/14 09:05:24;;;;;;;1.75;1.10;;;25.70;52.20;;;;;;5052163;28;20083;-68
2022/09/14 09:08:17;;;;;;;2.40;1.10;;;25.70;52.10;;;;;;5051322;28;20029;-68
2022/09/14 09:10:43;;;;;;;2.40;1.50;;;25.70;52.20;;;;;;5051548;28;20357;-69
2022/09/14 09:13:21;;;;;;;2.03;1.30;;;25.70;52.10;;;;;;5052381;28;20035;-67
2022/09/14 09:15:49;;;;;;;1.90;1.20;;;25.80;52.10;;;;;;5050745;28;20393;-67
2022/09/14 09:18:26;;;;;;;1.85;1.15;;;25.80;52.60;;;;;;5052208;28;20033;-67
2022/09/14 09:21:11;;;;;;;1.85;1.23;;;25.80;52.10;;;;;;5050563;28;20476;-67
2022/09/14 09:23:38;;;;;;;2.35;1.13;;;25.80;52.10;;;;;;5051211;28;20079;-67
2022/09/14 09:26:13;;;;;;;2.65;1.40;;;25.80;52.00;;;;;;5052108;28;20035;-67
2022/09/14 09:28:53;;;;;;;2.35;1.17;;;25.90;52.10;;;;;;5051894;28;20120;-67
2022/09/14 09:31:26;;;;;;;2.10;1.10;;;25.80;52.00;;;;;;5051177;28;20388;-67
2022/09/14 09:33:52;;;;;;;1.88;1.20;;;25.80;52.00;;;;;;5051121;28;20025;-67
2022/09/14 09:36:18;;;;;;;2.05;1.17;;;25.90;52.00;;;;;;5051777;28;20103;-67
2022/09/14 09:38:44;;;;;;;2.63;1.30;;;25.90;52.00;;;;;;5051937;28;20025;-67
2022/09/14 09:41:21;;;;;;;1.98;1.10;;;25.90;52.00;;;;;;5051824;28;20446;-67
2022/09/14 09:43:59;;;;;;;2.63;1.30;;;25.90;52.00;;;;;;5051614;28;20036;-67
2022/09/14 09:46:26;;;;;;;2.28;1.40;;;25.90;51.90;;;;;;5049571;28;20021;-68
2022/09/14 09:48:53;;;;;;;2.42;1.15;;;25.90;52.00;;;;;;5051617;28;20092;-67
2022/09/14 09:51:27;;;;;;;2.20;1.30;;;26.00;52.00;;;;;;5051492;28;20025;-67
2022/09/14 09:54:11;;;;;;;1.58;1.10;;;26.00;52.00;;;;;;5049398;28;20029;-67
2022/09/14 09:57:01;;;;;;;1.65;1.00;;;26.00;52.00;;;;;;5051491;28;20495;-67
2022/09/14 09:59:36;;;;;;;1.77;1.30;;;26.00;52.00;;;;;;5041533;28;20040;-67
2022/09/14 10:02:21;;;;;;;1.80;1.15;;;26.00;51.90;;;;;;5050390;28;20488;-68
2022/09/14 10:05:10;;;;;;;2.45;1.40;;;26.00;51.90;;;;;;5051331;28;20354;-68
2022/09/14 10:07:42;;;;;;;2.40;1.20;;;26.00;51.90;;;;;;5019125;28;20041;-68
2022/09/14 10:10:13;;;;;;;1.98;1.10;;;26.10;52.10;;;;;;5050907;28;20020;-68
2022/09/14 10:12:48;;;;;;;1.92;1.13;;;26.10;52.00;;;;;;5050805;28;20029;-68
2022/09/14 10:15:24;;;;;;;1.55;1.10;;;26.10;51.90;;;;;;5050122;28;20094;-68
2022/09/14 10:18:16;;;;;;;1.60;1.00;;;26.10;51.90;;;;;;5049699;28;20044;-69
2022/09/14 10:20:52;;;;;;;1.80;1.10;;;26.10;51.90;;;;;;5050736;28;20472;-67
2022/09/14 10:23:18;;;;;;;2.13;1.15;;;26.10;51.90;;;;;;5049551;28;20468;-67
2022/09/14 10:25:51;;;;;;;1.92;1.10;;;26.10;51.90;;;;;;5051024;28;20029;-68
2022/09/14 10:28:29;;;;;;;2.80;1.08;;;26.10;51.90;;;;;;5050731;28;20041;-67
2022/09/14 10:31:19;;;;;;;1.73;1.00;;;26.10;51.90;;;;;;5043396;28;20028;-68
2022/09/14 10:33:52;;;;;;;1.55;0.98;;;26.10;51.90;;;;;;5012815;28;20033;-68
2022/09/14 10:36:29;;;;;;;1.35;0.85;;;26.20;52.00;;;;;;5030902;28;20519;-68
2022/09/14 10:39:19;;;;;;;1.65;1.23;;;26.20;52.00;;;;;;5031067;28;20022;-67
2022/09/14 10:42:13;;;;;;;1.48;0.95;;;26.20;52.00;;;;;;5030924;28;20196;-68
2022/09/14 10:44:55;;;;;;;1.40;1.00;;;26.20;52.00;;;;;;5030320;28;20041;-67
2022/09/14 10:47:46;;;;;;;1.40;1.00;;;26.20;52.10;;;;;;5030926;28;20404;-68
2022/09/14 10:50:23;;;;;;;1.65;1.00;;;26.20;52.20;;;;;;5030574;28;20026;-68
2022/09/14 10:53:18;;;;;;;1.23;0.80;;;26.20;52.40;;;;;;5030484;28;20437;-68
2022/09/14 10:56:00;;;;;;;1.20;0.82;;;26.20;52.60;;;;;;5030087;28;20492;-67
2022/09/14 10:58:26;;;;;;;1.48;0.90;;;26.30;52.50;;;;;;5030756;28;20021;-68
2022/09/14 11:01:08;;;;;;;1.23;0.90;;;26.30;52.60;;;;;;5030501;28;20036;-68
2022/09/14 11:04:08;;;;;;;1.20;0.80;;;26.30;52.60;;;;;;5030748;28;20068;-68
2022/09/14 11:06:52;;;;;;;1.42;0.90;;;26.30;52.50;;;;;;5030665;28;20036;-67
2022/09/14 11:09:48;;;;;;;1.88;1.10;;;26.30;52.50;;;;;;5030091;28;20499;-68
2022/09/14 11:12:34;;;;;;;1.45;0.98;;;26.30;52.60;;;;;;5030631;28;20503;-67
2022/09/14 11:15:36;;;;;;;1.52;1.00;;;26.40;52.60;;;;;;5011745;28;20051;-68
2022/09/14 11:18:01;;;;;;;1.40;0.82;;;26.40;52.60;;;;;;5030598;28;20499;-68
2022/09/14 11:20:50;;;;;;;1.27;1.00;;;26.40;52.60;;;;;;5030753;28;20066;-68
2022/09/14 11:23:25;;;;;;;1.30;0.90;;;26.40;53.00;;;;;;5028317;28;20112;-68
2022/09/14 11:25:59;;;;;;;1.00;0.90;;;26.40;53.10;;;;;;5018960;28;20116;-68
2022/09/14 11:28:28;;;;;;;1.40;0.80;;;26.40;53.30;;;;;;5030970;28;20136;-69
2022/09/14 11:31:16;;;;;;;1.80;0.95;;;26.50;53.50;;;;;;5034042;28;20045;-68
2022/09/14 11:34:00;;;;;;;1.45;0.90;;;26.50;53.90;;;;;;5007576;28;20025;-67
2022/09/14 11:36:36;;;;;;;1.30;0.90;;;26.60;54.10;;;;;;5032787;28;20032;-68
2022/09/14 11:39:27;;;;;;;2.05;0.90;;;26.60;54.20;;;;;;5016411;28;20393;-68
2022/09/14 11:42:12;;;;;;;1.10;0.82;;;26.60;54.20;;;;;;5021086;28;20103;-69
2022/09/14 11:44:40;;;;;;;0.98;0.70;;;26.70;54.20;;;;;;5033758;28;20088;-68
2022/09/14 11:47:18;;;;;;;1.60;0.80;;;26.70;54.20;;;;;;5033962;28;20527;-68
2022/09/14 11:50:01;;;;;;;1.50;1.15;;;26.70;54.40;;;;;;5033580;28;20023;-68
2022/09/14 11:52:29;;;;;;;2.15;0.90;;;26.70;54.30;;;;;;5033526;28;20949;-68
2022/09/14 11:54:56;;;;;;;1.00;0.80;;;26.80;54.30;;;;;;5033965;28;20021;-69
2022/09/14 11:57:28;;;;;;;1.23;0.90;;;26.80;54.20;;;;;;5033921;28;20080;-68
2022/09/14 11:59:59;;;;;;;1.20;0.85;;;26.80;54.70;;;;;;5034072;28;20029;-69
2022/09/14 12:02:25;;;;;;;0.85;0.70;;;26.80;54.90;;;;;;5033273;28;20441;-69
2022/09/14 12:05:06;;;;;;;1.05;0.70;;;26.80;54.40;;;;;;5033713;28;20049;-69
2022/09/14 12:07:46;;;;;;;1.10;0.73;;;26.90;54.30;;;;;;5033599;28;20025;-69
2022/09/14 12:10:15;;;;;;;1.40;0.90;;;26.90;54.20;;;;;;5033705;28;20017;-69
2022/09/14 12:12:43;;;;;;;1.00;0.80;;;27.00;54.00;;;;;;5033613;28;20022;-68
2022/09/14 12:15:12;;;;;;;1.40;0.90;;;27.00;53.80;;;;;;5035806;28;20079;-67
2022/09/14 12:17:37;;;;;;;1.07;0.80;;;27.00;53.70;;;;;;5006993;28;20437;-68
2022/09/14 12:20:26;;;;;;;1.10;0.80;;;27.00;53.60;;;;;;5033688;28;20064;-68
2022/09/14 12:23:04;;;;;;;0.80;0.70;;;27.00;53.60;;;;;;5033227;28;20087;-68
2022/09/14 12:25:30;;;;;;;1.02;0.80;;;27.00;53.60;;;;;;5033418;28;20531;-68
2022/09/14 12:27:56;;;;;;;1.00;0.80;;;27.10;53.60;;;;;;5033388;28;20112;-69
2022/09/14 12:30:40;;;;;;;1.60;0.88;;;27.10;53.40;;;;;;5030792;28;20152;-68
2022/09/14 12:33:33;;;;;;;1.20;0.80;;;27.10;53.30;;;;;;5032777;28;20501;-70
2022/09/14 12:36:09;;;;;;;0.90;0.70;;;27.10;53.20;;;;;;5033258;28;20104;-68
2022/09/14 12:39:06;;;;;;;0.75;0.70;;;27.20;53.20;;;;;;5015400;28;20449;-69
2022/09/14 12:41:34;;;;;;;0.75;0.70;;;27.20;53.10;;;;;;5032197;28;20040;-69
2022/09/14 12:44:00;;;;;;;0.80;0.70;;;27.20;53.30;;;;;;5033209;28;20030;-68
2022/09/14 12:46:37;;;;;;;1.13;0.70;;;27.20;53.20;;;;;;5032090;28;20088;-68
2022/09/14 12:49:21;;;;;;;1.17;0.80;;;27.20;53.20;;;;;;5032445;28;20017;-68
2022/09/14 12:51:48;;;;;;;1.10;0.80;;;27.30;53.10;;;;;;5031707;28;20022;-69
2022/09/14 12:54:21;;;;;;;1.23;0.70;;;27.20;53.50;;;;;;5031666;28;20029;-68
2022/09/14 12:56:59;;;;;;;3.85;0.90;;;27.20;53.00;;;;;;5031156;28;20469;-69
2022/09/14 13:00:03;;;;;;;1.02;0.80;;;27.30;53.10;;;;;;5030942;28;20041;-69
2022/09/14 13:02:58;;;;;;;0.75;0.70;;;27.30;53.10;;;;;;5030555;28;20120;-69
2022/09/14 13:05:27;;;;;;;0.75;0.65;;;27.30;52.90;;;;;;5030674;28;20024;-69
2022/09/14 13:07:54;;;;;;;1.13;0.70;;;27.40;53.00;;;;;;5031487;28;20033;-70
2022/09/14 13:10:25;;;;;;;0.98;0.70;;;27.40;53.00;;;;;;5031503;28;20487;-68